Garner, North Carolina
Current Conditions -  °F | °C
As of 8:51 PM on Saturday 20 Dec 2014 (Local Time) from KRDU Reporting Station
Haze Haze  
Wind Chill: 38°   Ceiling: 3500
Heat Index: 38°   Visibility: 5mi
Dew Point: 34°   Wind: 0mph
Humidity: 86%   Direction: NA
Pressure: 30.28"   Gusts: NA
Location:  35.71°N, 78.62°W
Report Text: KRDU 210151Z 00000KT 5SM BR OVC035 03/01 A3028 RMK AO2 SLP256 T00330011
Loading
Personal Weather Stations






























Interactive Weather Map New forecast layout! Learn more

10-Day Weather Forecast

Advertisements
Track Severe Weather on mobile